Time;durP1;ratioP1;P1;durP2;ratioP2;P2;SDS_P1;SDS_P2;PMS_P1;PMS_P2;Temp;Humidity;BMP_temperature;BMP_pressure;BME280_temperature;BME280_humidity;BME280_pressure;Samples;Min_cycle;Max_cycle;Signal;HPM_P1;HPM_P2
2021/12/10 00:00:50;;;;;;;21.23;10.50;;;5.80;87.30;;;;;;5028417;28;20030;-67
2021/12/10 00:03:22;;;;;;;20.77;10.88;;;5.80;87.40;;;;;;5028970;28;20038;-66
2021/12/10 00:06:04;;;;;;;22.88;10.60;;;5.70;87.30;;;;;;5038280;28;20330;-66
2021/12/10 00:08:34;;;;;;;22.63;10.18;;;5.80;87.30;;;;;;5011470;28;20026;-66
2021/12/10 00:11:06;;;;;;;19.00;10.75;;;5.70;87.10;;;;;;5026233;28;20021;-66
2021/12/10 00:13:34;;;;;;;15.82;9.23;;;5.70;87.00;;;;;;5027450;28;20081;-67
2021/12/10 00:16:00;;;;;;;20.10;10.27;;;5.70;87.10;;;;;;5010042;28;20026;-68
2021/12/10 00:18:32;;;;;;;16.92;9.18;;;5.70;87.00;;;;;;5029205;28;20496;-70
2021/12/10 00:20:59;;;;;;;20.52;10.65;;;5.60;87.00;;;;;;5029772;28;20640;-67
2021/12/10 00:23:29;;;;;;;20.02;9.65;;;5.60;86.80;;;;;;5029827;28;20112;-67
2021/12/10 00:25:55;;;;;;;15.25;10.23;;;5.60;87.00;;;;;;5029548;28;20064;-67
2021/12/10 00:28:27;;;;;;;20.48;10.02;;;5.60;86.90;;;;;;5028747;28;20558;-67
2021/12/10 00:31:15;;;;;;;;;;;5.60;86.80;;;;;;5017720;28;20030;-67
2021/12/10 00:33:47;;;;;;;18.45;10.10;;;5.50;86.60;;;;;;5028207;28;20332;-68
2021/12/10 00:36:12;;;;;;;21.65;10.88;;;5.50;86.60;;;;;;5029518;28;20381;-67
2021/12/10 00:38:39;;;;;;;17.73;10.20;;;5.40;86.70;;;;;;5029695;28;20021;-67
2021/12/10 00:41:07;;;;;;;19.67;11.63;;;5.40;86.70;;;;;;5029773;28;20037;-67
2021/12/10 00:43:34;;;;;;;17.35;10.13;;;5.40;86.70;;;;;;5029194;28;20037;-68
2021/12/10 00:45:59;;;;;;;20.75;10.55;;;5.40;86.70;;;;;;5026827;28;20116;-67
2021/12/10 00:48:25;;;;;;;22.30;12.13;;;5.50;86.60;;;;;;5025899;28;20171;-67
2021/12/10 00:50:54;;;;;;;15.35;10.68;;;5.50;86.50;;;;;;5028088;28;20511;-67
2021/12/10 00:53:20;;;;;;;16.95;10.38;;;5.50;86.40;;;;;;5027134;28;20036;-67
2021/12/10 00:55:46;;;;;;;19.92;12.25;;;5.50;86.30;;;;;;5029583;28;20171;-67
2021/12/10 00:58:12;;;;;;;24.83;11.05;;;5.50;86.20;;;;;;5029172;28;20107;-68
2021/12/10 01:00:49;;;;;;;21.73;11.38;;;5.40;86.20;;;;;;5028448;28;20038;-67
2021/12/10 01:03:20;;;;;;;17.10;10.60;;;5.40;86.40;;;;;;5033004;28;20029;-67
2021/12/10 01:05:53;;;;;;;17.85;10.88;;;5.40;86.40;;;;;;5043819;28;20557;-67
2021/12/10 01:08:19;;;;;;;23.05;10.38;;;5.40;86.60;;;;;;5031286;28;20028;-67
2021/12/10 01:11:09;;;;;;;16.80;10.82;;;5.40;86.60;;;;;;5028104;28;20041;-67
2021/12/10 01:13:40;;;;;;;17.98;11.43;;;5.50;86.60;;;;;;5028509;28;20400;-67
2021/12/10 01:27:28;;;;;;;18.10;11.23;;;5.40;86.30;;;;;;5028865;28;20408;-67
2021/12/10 01:29:58;;;;;;;23.85;11.43;;;5.40;86.30;;;;;;5028819;28;20507;-67
2021/12/10 01:32:30;;;;;;;21.45;11.82;;;5.40;86.40;;;;;;5027559;28;20021;-67
2021/12/10 01:34:56;;;;;;;20.38;12.20;;;5.40;86.50;;;;;;5028832;28;20477;-67
2021/12/10 01:37:24;;;;;;;18.75;12.48;;;5.40;86.40;;;;;;5028007;28;20032;-67
2021/12/10 01:39:52;;;;;;;18.13;11.93;;;5.40;86.30;;;;;;5028056;28;20062;-67
2021/12/10 01:44:53;;;;;;;21.08;11.90;;;5.40;86.40;;;;;;5032989;28;20034;-67
2021/12/10 01:47:23;;;;;;;18.30;11.68;;;5.40;86.40;;;;;;5031902;28;20116;-67
2021/12/10 01:49:50;;;;;;;17.00;11.63;;;5.30;86.20;;;;;;5032528;28;20029;-67
2021/12/10 01:52:18;;;;;;;17.63;10.70;;;5.30;86.20;;;;;;5031301;28;20071;-68
2021/12/10 01:54:48;;;;;;;16.70;10.80;;;5.30;86.20;;;;;;5028730;28;20040;-68
2021/12/10 01:57:16;;;;;;;17.00;10.90;;;5.30;86.00;;;;;;5031852;28;20113;-68
2021/12/10 01:59:44;;;;;;;19.85;10.65;;;5.30;86.00;;;;;;5032774;28;20033;-68
2021/12/10 02:02:14;;;;;;;15.60;11.15;;;5.20;85.80;;;;;;5030040;28;20029;-68
2021/12/10 02:04:42;;;;;;;18.88;10.07;;;5.20;85.60;;;;;;5032822;28;20036;-68
2021/12/10 02:07:14;;;;;;;16.60;10.57;;;5.20;85.60;;;;;;5032461;28;20095;-67
2021/12/10 02:09:40;;;;;;;19.65;10.68;;;5.20;85.50;;;;;;5038892;28;20104;-67
2021/12/10 02:12:06;;;;;;;17.02;10.27;;;5.20;85.40;;;;;;5041789;28;20045;-67
2021/12/10 02:14:32;;;;;;;18.60;9.85;;;5.20;85.30;;;;;;5030583;28;20037;-67
2021/12/10 02:16:59;;;;;;;15.60;9.60;;;5.10;85.10;;;;;;5018193;28;20123;-67
2021/12/10 02:19:27;;;;;;;21.45;10.27;;;5.10;85.00;;;;;;5031991;28;20831;-67
2021/12/10 02:21:54;;;;;;;16.42;10.18;;;5.10;85.00;;;;;;5031170;28;20034;-66
2021/12/10 02:24:21;;;;;;;17.20;8.88;;;5.10;84.80;;;;;;5030753;28;20029;-69
2021/12/10 02:27:00;;;;;;;15.63;8.50;;;5.00;84.80;;;;;;5030864;28;20506;-69
2021/12/10 02:29:28;;;;;;;14.45;8.82;;;5.00;84.90;;;;;;5022332;28;20037;-70
2021/12/10 02:31:54;;;;;;;17.55;9.25;;;4.90;84.80;;;;;;5025551;28;20580;-69
2021/12/10 02:34:22;;;;;;;13.88;7.93;;;4.90;84.70;;;;;;5029585;28;20125;-70
2021/12/10 02:36:49;;;;;;;17.00;8.85;;;5.00;84.80;;;;;;5027632;28;20519;-70
2021/12/10 02:39:18;;;;;;;13.15;8.40;;;4.90;84.60;;;;;;5030968;28;20112;-70
2021/12/10 02:41:44;;;;;;;16.67;8.65;;;4.90;84.60;;;;;;5031789;28;20079;-70
2021/12/10 02:44:14;;;;;;;15.23;8.02;;;4.90;84.60;;;;;;5031961;28;20472;-70
2021/12/10 02:46:40;;;;;;;14.85;8.38;;;4.90;84.60;;;;;;5020845;28;20025;-70
2021/12/10 02:49:07;;;;;;;14.02;8.30;;;4.90;84.60;;;;;;5030211;28;20029;-70
2021/12/10 02:51:35;;;;;;;12.05;7.95;;;4.90;84.50;;;;;;5028287;28;20316;-70
2021/12/10 02:54:03;;;;;;;10.65;7.93;;;4.80;84.40;;;;;;5029753;28;20033;-69
2021/12/10 02:56:29;;;;;;;14.52;7.97;;;4.80;84.40;;;;;;5029559;28;20025;-70
2021/12/10 02:58:59;;;;;;;13.68;7.93;;;4.80;84.40;;;;;;5031605;28;20040;-69
2021/12/10 03:01:33;;;;;;;15.30;8.82;;;4.80;84.30;;;;;;5031235;28;20539;-69
2021/12/10 03:04:00;;;;;;;14.00;8.75;;;4.80;84.30;;;;;;5025661;28;20026;-69
2021/12/10 03:06:30;;;;;;;15.73;9.45;;;4.80;84.20;;;;;;5031776;28;20049;-69
2021/12/10 03:08:57;;;;;;;17.17;10.57;;;4.80;84.20;;;;;;5031648;28;20131;-69
2021/12/10 03:11:27;;;;;;;14.05;10.30;;;4.70;84.00;;;;;;5031653;28;20025;-69
2021/12/10 03:13:53;;;;;;;19.90;12.13;;;4.80;84.00;;;;;;5046486;28;20041;-70
2021/12/10 03:16:19;;;;;;;18.85;13.00;;;4.80;83.90;;;;;;5029390;28;20111;-70
2021/12/10 03:18:45;;;;;;;18.63;13.45;;;4.70;84.50;;;;;;5031292;28;20021;-70
2021/12/10 03:21:12;;;;;;;17.23;12.73;;;4.70;84.00;;;;;;5027345;28;20033;-70
2021/12/10 03:23:42;;;;;;;20.42;13.73;;;4.70;84.00;;;;;;5031653;28;20061;-70
2021/12/10 03:26:13;;;;;;;16.40;11.18;;;4.70;84.00;;;;;;5029176;28;20048;-70
2021/12/10 03:28:41;;;;;;;20.05;13.65;;;4.70;84.10;;;;;;5030153;28;20117;-70
2021/12/10 03:31:07;;;;;;;19.20;13.30;;;4.60;84.10;;;;;;5029411;28;20071;-70
2021/12/10 03:33:34;;;;;;;16.85;12.63;;;4.60;84.10;;;;;;5030426;28;20613;-70
2021/12/10 03:36:00;;;;;;;14.38;11.50;;;4.60;84.20;;;;;;5028366;28;20053;-71
2021/12/10 03:38:27;;;;;;;15.85;10.68;;;4.60;84.20;;;;;;5029233;28;20032;-71
2021/12/10 03:40:53;;;;;;;17.60;11.07;;;4.60;84.20;;;;;;5030148;28;20045;-70
2021/12/10 03:43:20;;;;;;;16.27;11.27;;;4.60;84.30;;;;;;5030640;28;20049;-71
2021/12/10 03:45:50;;;;;;;16.17;10.55;;;4.60;84.50;;;;;;5029786;28;20022;-71
2021/12/10 03:48:23;;;;;;;14.65;11.50;;;4.50;84.50;;;;;;5028845;28;20044;-71
2021/12/10 03:50:49;;;;;;;15.10;10.70;;;4.50;84.60;;;;;;5030056;28;20032;-71
2021/12/10 03:53:17;;;;;;;13.45;10.35;;;4.50;84.60;;;;;;5028840;28;20033;-71
2021/12/10 03:55:43;;;;;;;13.43;9.43;;;4.60;84.70;;;;;;5028184;28;20440;-70
2021/12/10 03:58:10;;;;;;;16.08;9.38;;;4.50;84.60;;;;;;5030459;28;20018;-67
2021/12/10 04:00:40;;;;;;;13.95;8.63;;;4.60;84.60;;;;;;5029234;28;20125;-67
2021/12/10 04:03:06;;;;;;;14.27;8.88;;;4.50;84.70;;;;;;5029730;28;20467;-67
2021/12/10 04:05:33;;;;;;;14.10;8.93;;;4.50;84.70;;;;;;5030084;28;20531;-66
2021/12/10 04:07:59;;;;;;;12.25;7.82;;;4.50;84.70;;;;;;5028946;28;20575;-66
2021/12/10 04:10:27;;;;;;;15.38;7.97;;;4.50;84.80;;;;;;5029286;28;20480;-70
2021/12/10 04:12:53;;;;;;;11.48;8.13;;;4.50;84.80;;;;;;5025007;28;20041;-70
2021/12/10 04:15:22;;;;;;;10.52;7.85;;;4.50;84.80;;;;;;5029780;28;20479;-70
2021/12/10 04:17:50;;;;;;;13.25;8.50;;;4.50;84.90;;;;;;5029398;28;20022;-70
2021/12/10 04:20:18;;;;;;;13.23;8.85;;;4.50;85.00;;;;;;5030079;28;20025;-70
2021/12/10 04:22:46;;;;;;;10.32;7.78;;;4.50;85.00;;;;;;5026680;28;20037;-70
2021/12/10 04:25:15;;;;;;;11.40;8.00;;;4.50;84.90;;;;;;5037543;28;20120;-72
2021/12/10 04:27:44;;;;;;;14.15;8.38;;;4.50;85.00;;;;;;5029027;28;20163;-69
2021/12/10 04:30:12;;;;;;;12.70;8.63;;;4.40;84.90;;;;;;5029323;28;20025;-67
2021/12/10 04:32:38;;;;;;;12.85;8.63;;;4.40;84.90;;;;;;5027034;28;20041;-68
2021/12/10 04:35:05;;;;;;;16.58;8.85;;;4.40;85.00;;;;;;5028216;28;20033;-68
2021/12/10 04:37:31;;;;;;;11.85;7.78;;;4.40;84.90;;;;;;5027509;28;20021;-71
2021/12/10 04:39:59;;;;;;;12.13;8.18;;;4.40;84.90;;;;;;5029868;28;20417;-71
2021/12/10 04:42:25;;;;;;;13.25;7.20;;;4.40;84.80;;;;;;5028958;28;20109;-71
2021/12/10 04:44:53;;;;;;;10.85;7.40;;;4.40;84.90;;;;;;5025441;28;20042;-71
2021/12/10 04:47:19;;;;;;;16.23;6.90;;;4.40;84.90;;;;;;5027097;28;20124;-71
2021/12/10 04:49:44;;;;;;;12.10;7.53;;;4.40;84.90;;;;;;5029754;28;20038;-70
2021/12/10 04:52:10;;;;;;;14.07;6.85;;;4.40;84.80;;;;;;5027143;28;20032;-70
2021/12/10 04:54:37;;;;;;;11.98;7.07;;;4.40;84.80;;;;;;5029828;28;20115;-70
2021/12/10 04:57:04;;;;;;;9.07;6.25;;;4.40;85.40;;;;;;5029286;28;20422;-70
2021/12/10 04:59:34;;;;;;;15.27;6.10;;;4.30;84.80;;;;;;5029477;28;20029;-70
2021/12/10 05:02:02;;;;;;;13.95;6.93;;;4.40;84.90;;;;;;5023580;28;20044;-71
2021/12/10 05:04:30;;;;;;;13.52;6.65;;;4.40;84.90;;;;;;5009787;28;20102;-71
2021/12/10 05:06:56;;;;;;;13.15;7.00;;;4.30;84.80;;;;;;5009650;28;20022;-70
2021/12/10 05:09:22;;;;;;;12.93;8.13;;;4.40;84.90;;;;;;5022682;28;20044;-71
2021/12/10 05:11:50;;;;;;;12.27;7.82;;;4.40;84.90;;;;;;5027617;28;20384;-71
2021/12/10 05:14:17;;;;;;;12.90;6.97;;;4.30;84.80;;;;;;5027202;28;20018;-71
2021/12/10 05:16:45;;;;;;;14.68;6.80;;;4.30;84.70;;;;;;5013533;28;20090;-70
2021/12/10 05:19:20;;;;;;;14.57;6.60;;;4.30;84.70;;;;;;5021359;28;20053;-70
2021/12/10 05:21:47;;;;;;;11.50;6.70;;;4.30;84.60;;;;;;5023660;28;20025;-70
2021/12/10 05:24:14;;;;;;;14.00;6.60;;;4.30;84.60;;;;;;5027501;28;20021;-67
2021/12/10 05:26:41;;;;;;;11.73;6.68;;;4.30;84.60;;;;;;5028373;28;20032;-67
2021/12/10 05:29:08;;;;;;;10.50;6.30;;;4.30;84.60;;;;;;5030452;28;20028;-67
2021/12/10 05:31:36;;;;;;;10.57;6.07;;;4.30;84.60;;;;;;5036571;28;20033;-67
2021/12/10 05:34:02;;;;;;;13.65;6.45;;;4.30;84.70;;;;;;5031495;28;20330;-67
2021/12/10 05:36:28;;;;;;;13.18;6.63;;;4.30;84.50;;;;;;5020055;28;20060;-68
2021/12/10 05:38:55;;;;;;;10.63;6.75;;;4.30;84.50;;;;;;5024578;28;20458;-67
2021/12/10 05:41:20;;;;;;;13.35;6.53;;;4.30;84.50;;;;;;5028892;28;20053;-68
2021/12/10 05:43:46;;;;;;;17.80;6.78;;;4.30;84.50;;;;;;5026948;28;20053;-67
2021/12/10 05:46:13;;;;;;;14.93;6.40;;;4.30;85.10;;;;;;5027470;28;20038;-67
2021/12/10 05:48:40;;;;;;;13.82;6.85;;;4.30;84.50;;;;;;5027771;28;20036;-67
2021/12/10 05:51:05;;;;;;;11.27;6.35;;;4.30;84.50;;;;;;5029009;28;20030;-68
2021/12/10 05:53:32;;;;;;;12.57;5.93;;;4.30;84.50;;;;;;5025832;28;20131;-67
2021/12/10 05:55:57;;;;;;;10.52;5.20;;;4.30;84.50;;;;;;5026762;28;20076;-67
2021/12/10 05:58:23;;;;;;;8.40;4.93;;;4.30;84.40;;;;;;5021439;28;20039;-68
2021/12/10 06:01:00;;;;;;;11.52;5.00;;;4.30;84.50;;;;;;5015402;28;20052;-68
2021/12/10 06:03:26;;;;;;;11.02;4.68;;;4.30;84.40;;;;;;5025248;28;20132;-68
2021/12/10 06:05:52;;;;;;;12.65;5.13;;;4.30;84.30;;;;;;5014147;28;20033;-68
2021/12/10 06:08:19;;;;;;;20.33;5.78;;;4.30;84.30;;;;;;5028424;28;20022;-68
2021/12/10 06:10:46;;;;;;;9.55;4.22;;;4.30;84.20;;;;;;5021776;28;20041;-68
2021/12/10 06:13:12;;;;;;;9.90;4.10;;;4.30;84.20;;;;;;5024180;28;20567;-68
2021/12/10 06:15:39;;;;;;;10.55;4.32;;;4.30;84.20;;;;;;5021615;28;20038;-68
2021/12/10 06:18:05;;;;;;;12.80;4.78;;;4.30;84.20;;;;;;5031250;28;20079;-68
2021/12/10 06:20:35;;;;;;;9.10;4.57;;;4.30;84.20;;;;;;5038784;28;20065;-67
2021/12/10 06:23:05;;;;;;;12.65;3.97;;;4.30;84.20;;;;;;5026625;28;20380;-68
2021/12/10 06:25:33;;;;;;;10.65;5.20;;;4.30;84.10;;;;;;5027581;28;20017;-68
2021/12/10 06:28:03;;;;;;;7.50;4.13;;;4.30;84.20;;;;;;5028984;28;20037;-68
2021/12/10 06:30:41;;;;;;;9.23;4.60;;;4.30;84.20;;;;;;5031429;28;20519;-67
2021/12/10 06:33:10;;;;;;;11.63;4.50;;;4.30;84.20;;;;;;5031633;28;20026;-67
2021/12/10 06:35:38;;;;;;;9.35;4.78;;;4.30;84.20;;;;;;5037186;28;20018;-68
2021/12/10 06:38:04;;;;;;;12.57;4.75;;;4.30;84.20;;;;;;5041495;28;20623;-68
2021/12/10 06:40:33;;;;;;;7.45;4.05;;;4.20;84.10;;;;;;5031112;28;20026;-67
2021/12/10 06:43:00;;;;;;;7.50;4.05;;;4.20;84.10;;;;;;5020905;28;20064;-68
2021/12/10 06:45:28;;;;;;;11.80;4.35;;;4.20;84.10;;;;;;5029503;28;20032;-67
2021/12/10 06:48:01;;;;;;;8.93;4.40;;;4.20;84.10;;;;;;5031497;28;20033;-67
2021/12/10 06:50:29;;;;;;;6.97;4.00;;;4.20;84.20;;;;;;5029632;28;20025;-68
2021/12/10 06:52:57;;;;;;;9.90;3.83;;;4.20;84.20;;;;;;5030935;28;20026;-68
2021/12/10 06:55:24;;;;;;;8.77;4.05;;;4.20;84.20;;;;;;5031259;28;20098;-68
2021/12/10 06:57:50;;;;;;;7.80;3.50;;;4.20;84.20;;;;;;5031303;28;20036;-68
2021/12/10 07:00:25;;;;;;;6.53;3.72;;;4.20;84.20;;;;;;5030636;28;20041;-68
2021/12/10 07:02:52;;;;;;;11.35;4.05;;;4.20;84.20;;;;;;5028540;28;20057;-68
2021/12/10 07:05:18;;;;;;;10.18;4.40;;;4.10;84.20;;;;;;5030074;28;20116;-68
2021/12/10 07:07:46;;;;;;;7.97;3.75;;;4.10;84.10;;;;;;5031012;28;20030;-68
2021/12/10 07:10:15;;;;;;;7.90;4.28;;;4.20;84.20;;;;;;5030748;28;20049;-67
2021/12/10 07:12:42;;;;;;;9.63;4.53;;;4.20;84.10;;;;;;5030885;28;20048;-67
2021/12/10 07:15:10;;;;;;;8.27;3.97;;;4.20;84.20;;;;;;5025928;28;20029;-67
2021/12/10 07:17:40;;;;;;;10.80;3.72;;;4.10;84.20;;;;;;5028047;28;20060;-67
2021/12/10 07:20:08;;;;;;;9.00;3.17;;;4.10;84.20;;;;;;5027529;28;20021;-67
2021/12/10 07:22:35;;;;;;;11.93;3.60;;;4.20;84.30;;;;;;5029170;28;20396;-68
2021/12/10 07:25:01;;;;;;;11.50;3.78;;;4.20;84.30;;;;;;5029721;28;20017;-68
2021/12/10 07:27:26;;;;;;;8.00;3.13;;;4.20;84.30;;;;;;5028961;28;20041;-67
2021/12/10 07:29:52;;;;;;;8.35;4.40;;;4.20;84.30;;;;;;5031029;28;20558;-68
2021/12/10 07:32:18;;;;;;;11.55;4.35;;;4.20;84.30;;;;;;5028353;28;20090;-67
2021/12/10 07:34:43;;;;;;;8.25;4.22;;;4.20;84.30;;;;;;5029996;28;20061;-67
2021/12/10 07:37:10;;;;;;;11.07;4.93;;;4.20;84.30;;;;;;5028669;28;20050;-68
2021/12/10 07:39:37;;;;;;;7.18;5.10;;;4.20;84.40;;;;;;5028391;28;20033;-68
2021/12/10 07:42:06;;;;;;;10.73;4.20;;;4.20;84.40;;;;;;5027680;28;20489;-68
2021/12/10 07:44:33;;;;;;;10.13;5.38;;;4.30;84.50;;;;;;5030388;28;20038;-68
2021/12/10 07:47:02;;;;;;;12.77;4.32;;;4.30;84.50;;;;;;5029448;28;20079;-69
2021/12/10 07:49:31;;;;;;;10.43;4.35;;;4.30;84.60;;;;;;5030427;28;20036;-69
2021/12/10 07:51:57;;;;;;;10.48;4.07;;;4.30;84.60;;;;;;5029362;28;20045;-69
2021/12/10 07:54:23;;;;;;;8.05;3.78;;;4.30;84.60;;;;;;5031042;28;20052;-69
2021/12/10 07:56:50;;;;;;;9.45;3.70;;;4.30;84.60;;;;;;5028899;28;20599;-68
2021/12/10 07:59:16;;;;;;;6.65;3.53;;;4.30;84.60;;;;;;5027462;28;20040;-69
2021/12/10 08:01:42;;;;;;;11.10;3.72;;;4.30;84.60;;;;;;5025818;28;20037;-69
2021/12/10 08:04:08;;;;;;;9.20;4.07;;;4.40;84.60;;;;;;5029255;28;20038;-69
2021/12/10 08:06:35;;;;;;;9.95;3.50;;;4.40;84.60;;;;;;5028999;28;20507;-69
2021/12/10 08:09:06;;;;;;;10.38;3.63;;;4.40;85.10;;;;;;5027711;28;20052;-69
2021/12/10 08:11:32;;;;;;;10.15;3.97;;;4.40;84.50;;;;;;5011991;28;20061;-68
2021/12/10 08:13:58;;;;;;;10.07;3.88;;;4.40;84.50;;;;;;5029808;28;20432;-69
2021/12/10 08:16:25;;;;;;;9.25;3.72;;;4.40;84.40;;;;;;5029541;28;20039;-69
2021/12/10 08:18:52;;;;;;;10.63;3.53;;;4.40;84.40;;;;;;5030011;28;20135;-69
2021/12/10 08:21:18;;;;;;;10.00;3.40;;;4.50;84.50;;;;;;5029080;28;20565;-68
2021/12/10 08:23:44;;;;;;;9.77;3.50;;;4.50;84.50;;;;;;5029433;28;20038;-68
2021/12/10 08:26:12;;;;;;;10.90;3.67;;;4.50;84.40;;;;;;5025251;28;20034;-69
2021/12/10 08:28:39;;;;;;;6.28;2.85;;;4.50;84.50;;;;;;5028380;28;20099;-69
2021/12/10 08:31:05;;;;;;;5.20;3.20;;;4.50;84.40;;;;;;5031819;28;20033;-68
2021/12/10 08:33:32;;;;;;;10.98;3.70;;;4.50;84.30;;;;;;5028511;28;20507;-69
2021/12/10 08:36:02;;;;;;;10.93;3.85;;;4.50;84.30;;;;;;5028521;28;20445;-68
2021/12/10 08:38:29;;;;;;;8.55;3.80;;;4.50;84.30;;;;;;5029505;28;20575;-67
2021/12/10 08:40:59;;;;;;;9.50;3.60;;;4.50;84.40;;;;;;5029869;28;20030;-69
2021/12/10 08:43:26;;;;;;;8.77;3.40;;;4.60;84.30;;;;;;5021665;28;20021;-69
2021/12/10 08:45:53;;;;;;;10.05;3.60;;;4.50;84.40;;;;;;5043750;28;20040;-69
2021/12/10 08:48:21;;;;;;;13.88;4.60;;;4.60;84.40;;;;;;5038859;28;20049;-69
2021/12/10 08:50:47;;;;;;;7.25;3.50;;;4.60;84.40;;;;;;5027600;28;20029;-70
2021/12/10 08:53:14;;;;;;;9.50;3.85;;;4.60;84.30;;;;;;5028895;28;20037;-69
2021/12/10 08:55:43;;;;;;;6.10;3.47;;;4.60;84.40;;;;;;5028757;28;20480;-69
2021/12/10 08:58:11;;;;;;;8.68;3.85;;;4.60;84.30;;;;;;5029851;28;20032;-69
2021/12/10 09:00:40;;;;;;;8.63;3.30;;;4.60;84.30;;;;;;5025778;28;20029;-69
2021/12/10 09:03:06;;;;;;;10.55;3.97;;;4.70;84.30;;;;;;5031739;28;20030;-69
2021/12/10 09:05:32;;;;;;;8.75;4.30;;;4.60;84.30;;;;;;5029363;28;20107;-68
2021/12/10 09:07:58;;;;;;;12.68;3.53;;;4.70;84.30;;;;;;5025169;28;20441;-67
2021/12/10 09:10:29;;;;;;;10.20;3.60;;;4.70;84.30;;;;;;5011085;28;20026;-68
2021/12/10 09:12:55;;;;;;;6.97;3.83;;;4.70;84.20;;;;;;5026862;28;20528;-67
2021/12/10 09:15:25;;;;;;;12.65;3.65;;;4.70;84.30;;;;;;5020925;28;20037;-66
2021/12/10 09:17:52;;;;;;;7.57;3.63;;;4.80;84.40;;;;;;5028790;28;20021;-69
2021/12/10 09:20:23;;;;;;;10.98;3.53;;;4.80;84.30;;;;;;5031521;28;20091;-69
2021/12/10 09:22:49;;;;;;;9.10;3.60;;;4.80;84.30;;;;;;5018850;28;20095;-69
2021/12/10 09:25:16;;;;;;;11.15;3.78;;;4.80;84.30;;;;;;5023232;28;20033;-69
2021/12/10 09:27:43;;;;;;;10.20;4.18;;;4.90;84.30;;;;;;5020559;28;20064;-69
2021/12/10 09:30:11;;;;;;;11.57;4.32;;;4.90;84.20;;;;;;5017169;28;20040;-68
2021/12/10 09:32:37;;;;;;;10.65;4.05;;;4.90;84.20;;;;;;5025491;28;20091;-69
2021/12/10 09:35:07;;;;;;;10.20;4.22;;;4.90;84.20;;;;;;5022861;28;20316;-69
2021/12/10 09:37:34;;;;;;;9.40;3.67;;;4.90;84.20;;;;;;5025597;28;20029;-69
2021/12/10 09:40:01;;;;;;;14.27;4.80;;;4.90;84.10;;;;;;5023771;28;20049;-68
2021/12/10 09:42:27;;;;;;;11.07;3.25;;;5.00;84.10;;;;;;5016392;28;20048;-69
2021/12/10 09:44:54;;;;;;;10.73;3.75;;;5.00;84.10;;;;;;5004728;28;20502;-69
2021/12/10 09:47:20;;;;;;;8.15;3.38;;;5.00;84.10;;;;;;5026371;28;20148;-70
2021/12/10 09:49:50;;;;;;;10.80;3.42;;;5.10;84.10;;;;;;5013939;28;20029;-70
2021/12/10 09:52:19;;;;;;;9.57;3.75;;;5.10;84.10;;;;;;5021799;28;20029;-69
2021/12/10 09:54:45;;;;;;;9.77;3.55;;;5.10;84.10;;;;;;5030814;28;20476;-68
2021/12/10 09:57:25;;;;;;;9.18;3.63;;;5.10;84.10;;;;;;5022026;28;20393;-69
2021/12/10 09:59:54;;;;;;;9.80;3.80;;;5.10;84.00;;;;;;5024435;28;20025;-69
2021/12/10 10:02:22;;;;;;;8.23;3.60;;;5.10;84.10;;;;;;5028756;28;20048;-70
2021/12/10 10:04:50;;;;;;;11.52;3.70;;;5.10;84.00;;;;;;5031977;28;20026;-70
2021/12/10 10:07:29;;;;;;;8.30;3.47;;;5.10;84.00;;;;;;5030458;28;20033;-69
2021/12/10 10:09:59;;;;;;;8.90;3.42;;;5.10;84.00;;;;;;5020726;28;20065;-70
2021/12/10 10:12:30;;;;;;;7.95;3.10;;;5.10;84.00;;;;;;5029072;28;20541;-70
2021/12/10 10:14:57;;;;;;;6.13;3.50;;;5.10;84.00;;;;;;5030935;28;20026;-70
2021/12/10 10:17:23;;;;;;;17.45;3.42;;;5.10;83.90;;;;;;5029719;28;20325;-69
2021/12/10 10:19:51;;;;;;;12.30;3.90;;;5.20;83.90;;;;;;5031413;28;20017;-69
2021/12/10 10:22:24;;;;;;;7.65;3.55;;;5.20;84.00;;;;;;5032000;28;20025;-70
2021/12/10 10:24:51;;;;;;;12.70;3.75;;;5.20;84.00;;;;;;5032508;28;20030;-69
2021/12/10 10:27:21;;;;;;;13.30;3.67;;;5.20;83.90;;;;;;5032574;28;20025;-69
2021/12/10 10:29:53;;;;;;;8.65;3.75;;;5.20;83.90;;;;;;5032520;28;20028;-69
2021/12/10 10:32:22;;;;;;;12.02;3.80;;;5.30;84.00;;;;;;5031486;28;20029;-69
2021/12/10 10:34:52;;;;;;;6.88;3.08;;;5.30;83.90;;;;;;5032028;28;20021;-70
2021/12/10 10:37:20;;;;;;;8.38;3.30;;;5.40;83.80;;;;;;5032270;28;20221;-69
2021/12/10 10:39:47;;;;;;;8.35;3.10;;;5.40;83.80;;;;;;5032146;28;20421;-69
2021/12/10 10:42:17;;;;;;;9.13;3.40;;;5.40;83.80;;;;;;5031824;28;20026;-69
2021/12/10 10:44:44;;;;;;;9.27;3.60;;;5.40;83.80;;;;;;5032461;28;20049;-69
2021/12/10 10:47:11;;;;;;;5.20;2.92;;;5.40;83.80;;;;;;5032005;28;20062;-69
2021/12/10 10:49:45;;;;;;;8.90;3.85;;;5.50;83.80;;;;;;5030630;28;20033;-69
2021/12/10 10:52:31;;;;;;;9.48;3.70;;;5.50;83.80;;;;;;5031792;28;20124;-70
2021/12/10 10:55:20;;;;;;;9.80;3.65;;;5.50;83.70;;;;;;5024348;28;20046;-70
2021/12/10 10:57:59;;;;;;;9.48;3.83;;;5.50;83.70;;;;;;5029337;28;20048;-69
2021/12/10 11:00:57;;;;;;;9.10;3.55;;;5.50;83.70;;;;;;5031871;28;20435;-69
2021/12/10 11:03:25;;;;;;;11.05;3.70;;;5.60;83.80;;;;;;5030208;28;20034;-69
2021/12/10 11:05:57;;;;;;;6.65;2.97;;;5.60;83.70;;;;;;5030169;28;20519;-69
2021/12/10 11:08:32;;;;;;;9.02;2.97;;;5.70;83.70;;;;;;5030393;28;20018;-70
2021/12/10 11:11:14;;;;;;;7.32;2.97;;;5.70;83.60;;;;;;5031300;28;20030;-70
2021/12/10 11:13:40;;;;;;;8.82;2.85;;;5.70;83.70;;;;;;5031103;28;20091;-69
2021/12/10 11:16:09;;;;;;;7.15;3.00;;;5.70;83.50;;;;;;5031056;28;20033;-70
2021/12/10 11:19:14;;;;;;;8.73;2.70;;;5.70;83.40;;;;;;5031342;28;20376;-70
2021/12/10 11:21:57;;;;;;;7.47;3.10;;;5.80;83.50;;;;;;5031378;28;20095;-69
2021/12/10 11:24:48;;;;;;;11.90;3.38;;;5.80;83.40;;;;;;5031563;28;20560;-70
2021/12/10 11:27:22;;;;;;;10.65;3.42;;;5.80;83.20;;;;;;5031328;28;20373;-70
2021/12/10 11:29:55;;;;;;;8.15;3.05;;;5.80;83.10;;;;;;5031041;28;20217;-69
2021/12/10 11:32:42;;;;;;;11.80;3.92;;;5.80;83.00;;;;;;5018192;28;20037;-70
2021/12/10 11:35:16;;;;;;;6.95;2.83;;;5.80;82.80;;;;;;5025805;28;20021;-70
2021/12/10 11:37:51;;;;;;;6.32;2.70;;;5.80;82.80;;;;;;5010708;28;20041;-69
2021/12/10 11:40:33;;;;;;;6.40;2.80;;;5.80;82.90;;;;;;5011665;28;20026;-69
2021/12/10 11:43:16;;;;;;;8.30;3.40;;;5.80;83.00;;;;;;5010798;28;20036;-70
2021/12/10 11:46:03;;;;;;;10.18;3.22;;;5.80;83.00;;;;;;5026102;28;20049;-69
2021/12/10 11:48:35;;;;;;;7.22;2.60;;;5.80;82.90;;;;;;5011188;28;20033;-69
2021/12/10 11:51:04;;;;;;;6.35;2.72;;;5.90;83.00;;;;;;5025327;28;20034;-69
2021/12/10 11:53:54;;;;;;;10.27;2.85;;;5.90;83.00;;;;;;5010816;28;20113;-70
2021/12/10 11:56:31;;;;;;;8.30;3.00;;;5.90;83.00;;;;;;5026093;28;20026;-69
2021/12/10 11:59:16;;;;;;;10.15;3.47;;;5.90;83.00;;;;;;5023454;28;20022;-69
2021/12/10 12:01:59;;;;;;;12.68;3.90;;;5.90;82.90;;;;;;5030328;28;20472;-70
2021/12/10 12:04:51;;;;;;;8.05;3.20;;;5.90;82.70;;;;;;5030730;28;20480;-69
2021/12/10 12:07:23;;;;;;;;;;;5.90;82.60;;;;;;5029484;28;20022;-69
2021/12/10 12:09:58;;;;;;;7.97;3.03;;;5.90;82.70;;;;;;5030506;28;20540;-69
2021/12/10 12:12:28;;;;;;;10.48;4.25;;;5.80;82.80;;;;;;5028829;28;20025;-70
2021/12/10 12:15:07;;;;;;;6.60;3.05;;;5.90;82.80;;;;;;5030184;28;20018;-69
2021/12/10 12:17:51;;;;;;;9.50;3.47;;;5.90;82.90;;;;;;5029801;28;20030;-70
2021/12/10 12:20:32;;;;;;;6.22;2.80;;;5.90;82.70;;;;;;5030537;28;20427;-69
2021/12/10 12:26:24;;;;;;;9.32;2.88;;;6.00;82.60;;;;;;5030322;28;20471;-70
2021/12/10 12:29:04;;;;;;;7.57;3.67;;;6.00;82.60;;;;;;5030069;28;20574;-71
2021/12/10 12:31:37;;;;;;;7.30;3.08;;;6.00;82.60;;;;;;5029429;28;20017;-71
2021/12/10 12:34:13;;;;;;;8.00;4.15;;;6.00;82.40;;;;;;5030209;28;20051;-71
2021/12/10 12:36:50;;;;;;;7.00;3.08;;;6.00;82.10;;;;;;5030124;28;20083;-71
2021/12/10 12:39:37;;;;;;;12.95;3.88;;;6.00;81.90;;;;;;5028528;28;20026;-71
2021/12/10 12:42:24;;;;;;;5.32;2.75;;;6.00;82.00;;;;;;5027958;28;20025;-71
2021/12/10 12:44:56;;;;;;;5.85;2.78;;;6.00;81.90;;;;;;5010175;28;20131;-71
2021/12/10 12:47:29;;;;;;;7.18;3.13;;;6.00;81.90;;;;;;5010017;28;20101;-71
2021/12/10 12:50:06;;;;;;;5.20;3.08;;;6.10;81.70;;;;;;5027262;28;20033;-71
2021/12/10 12:52:42;;;;;;;8.77;3.42;;;6.10;81.70;;;;;;5029258;28;20079;-71
2021/12/10 12:55:32;;;;;;;8.13;3.05;;;6.10;81.70;;;;;;5030114;28;20029;-71
2021/12/10 12:58:10;;;;;;;8.43;2.90;;;6.10;81.70;;;;;;5029879;28;20025;-71
2021/12/10 13:00:45;;;;;;;9.73;3.45;;;6.10;81.60;;;;;;5029043;28;20033;-71
2021/12/10 13:03:16;;;;;;;10.05;3.40;;;6.20;81.30;;;;;;5029697;28;20120;-71
2021/12/10 13:05:50;;;;;;;9.73;3.55;;;6.10;81.30;;;;;;5029726;28;20088;-71
2021/12/10 13:08:22;;;;;;;9.90;3.97;;;6.20;81.30;;;;;;5029583;28;20029;-71
2021/12/10 13:11:13;;;;;;;8.30;3.13;;;6.20;81.20;;;;;;5028990;28;20120;-71
2021/12/10 13:13:48;;;;;;;8.30;2.67;;;6.20;81.00;;;;;;5029562;28;20041;-71
2021/12/10 13:16:28;;;;;;;6.15;2.80;;;6.20;81.10;;;;;;5028869;28;20103;-71
2021/12/10 13:18:54;;;;;;;7.50;2.60;;;6.20;81.20;;;;;;5029676;28;20022;-71